Aeroporto :
LOGIN :

Iscrizione | Disclaimer

   EN    FR    IT 

 










Sommario :    VFR   VFR Marginale   IFR   IFR Intensivo   IFR Molto Intensivo
Visibilità : 
Base nubi : 
>= 8 km
>= 3000ft
5 / 8 km
1000 / 3000 ft
1500m / 5 km
500 / 1000 ft
800 / 1500m
200 / 500 ft
< 800m
< 200 ft
Simboli :   Temporali  Nebbia  Neve Forte  Precipitazioni Forti  Vento > 20 kt
SIGMETs :   Varie  Temporali  Ghiacco  Turbolenza  Onda orograficha  Ceneri Vulcaniche






- Altitudine del aeroporto : 1516 ft
- Codice IATA : AGB


EDMA - Augsburg

ULTIMO METAR :
  • 090250Z AUTO 25005KT 9999 // FEW034/// BKN190/// 06/04 Q1006

METARs OBSOLETI :
  • 090220Z AUTO 26005KT 9999 // FEW049/// BKN180/// 05/04 Q1007
  • 090150Z AUTO 25004KT 210V280 9999 // FEW015/// SCT028/// BKN150/// 06/04 Q1007
  • 090120Z AUTO 28009KT 250V310 9999 // FEW008/// OVC020/// 06/05 Q1008
  • 090050Z AUTO 30009KT 260V340 7000 // FEW008/// BKN010/// OVC030/// 06/05 Q1007
  • 090020Z AUTO 24014KT 9999 // FEW027/// BKN031/// OVC059/// 09/07 Q1006

Previsioni scadute.



MetMap, La meteo Aeronautica in un colpo d'occhio ! - Copyright ORBIFLY Dicembre 2007 - Disclaimer

ORBIFLY MET'MAP TEAM :

Programmazione e sviluppo : Alexandra Zaïnal
Concezione : Baudouin d'Aumeries
Aiuto per la programmazione : Marc-Olivier Méhu
Supporto tecnico e logistico : Manuel Goepfert
Aiuto per la traduzione : Arnaldo La Scala

Contatto : metmap@orbifly.com




FONTI E CREDITI :

   NOAA